Salt Lake City, Utah
Traffic Map
Current Weather Conditions
Salt Lake City, Utah
Overcast
Overcast
36°
Feels Like: 36°
Wind Chill: 36° Ceiling: 8000
Heat Index: 36° Visibility: 9mi
Dew Point: 31° Wind: 0mph
Humidity: 82% Direction: ° ()
Pressure: 29.82in Gusts: 0mph
Raw Report DataKSLC 021153Z 00000KT 9SM FEW050 BKN080 OVC100 02/M01 A2982 RMK AO2 SLP090 T00221006 10044 20022 56033
Traffic Incident Summary
Active as of:
Severity:
Category:
InformationThere was an issue retrieving the traffic information for this location. Please try a different location or try again shortly.
Advertisements
Track Severe Weather on mobile